KMLS/MLS METAR and TAF weather

Enter ICAO airport designator
Station Type Date Time Source
KMLS METAR 2022/06/28 23:53 UTC NOAA

KMLS 282353Z AUTO 10003KT 10SM CLR 33/11 A2991 RMK AO2 SLP108 T03280111 10339 20272 58021


Station Type Date Time Source
KMLS Decoded METAR 2022/06/28 23:53 UTC NOAA

MILES CITY WILEY FIELD, MT, United States (KMLS) 46-26N 105-53W 801M
Jun 28, 2022 - 07:53 PM EDT / 2022.06.28 2353 UTC
Wind: from the E (100 degrees) at 3 MPH (3 KT):0
Visibility: 10 mile(s):0
Sky conditions: clear
Temperature: 91.0 F (32.8 C)
Dew Point: 52.0 F (11.1 C)
Relative Humidity: 26%
Pressure (altimeter): 29.91 in. Hg (1012 hPa)
Pressure tendency: 0.06 inches (2.1 hPa) lower than three hours ago
ob: KMLS 282353Z AUTO 10003KT 10SM CLR 33/11 A2991 RMK AO2 SLP108 T03280111 10339 20272 58021
cycle: 0

Station Type Date Time Source
KMLS TAF 2022/06/28 18:27 UTC NOAA

TAF KMLS 281724Z 2818/2918 15006KT P6SM SKC
FM290100 31010KT P6SM VCSH SCT100 BKN200
FM290500 31010KT P6SM SCT100 BKN200
FM291100 31010KT P6SM FEW100 SCT200

Example: see airport list